sensor_id;sensor_type;location;lat;lon;timestamp;temperature;humidity
37281;DHT22;23169;41.804;12.596;2022-08-03T00:01:46;28.00;1.00
37281;DHT22;23169;41.804;12.596;2022-08-03T00:04:13;27.90;92.60
37281;DHT22;23169;41.804;12.596;2022-08-03T00:06:42;27.90;90.00
37281;DHT22;23169;41.804;12.596;2022-08-03T00:09:11;27.90;99.90
37281;DHT22;23169;41.804;12.596;2022-08-03T00:11:42;27.80;99.90
37281;DHT22;23169;41.804;12.596;2022-08-03T00:14:11;27.80;99.90
37281;DHT22;23169;41.804;12.596;2022-08-03T00:16:39;27.70;99.90
37281;DHT22;23169;41.804;12.596;2022-08-03T00:19:08;27.60;1.00
37281;DHT22;23169;41.804;12.596;2022-08-03T00:21:36;27.60;1.00
37281;DHT22;23169;41.804;12.596;2022-08-03T00:24:05;27.60;1.00
37281;DHT22;23169;41.804;12.596;2022-08-03T00:26:34;27.60;1.00
37281;DHT22;23169;41.804;12.596;2022-08-03T00:29:02;27.60;99.90
37281;DHT22;23169;41.804;12.596;2022-08-03T00:31:32;27.60;99.90
37281;DHT22;23169;41.804;12.596;2022-08-03T00:34:00;27.50;18.10
37281;DHT22;23169;41.804;12.596;2022-08-03T00:36:30;27.50;1.00
37281;DHT22;23169;41.804;12.596;2022-08-03T00:38:58;27.50;99.90
37281;DHT22;23169;41.804;12.596;2022-08-03T00:41:27;27.40;99.90
37281;DHT22;23169;41.804;12.596;2022-08-03T00:43:55;27.40;99.90
37281;DHT22;23169;41.804;12.596;2022-08-03T00:46:24;27.30;99.90
37281;DHT22;23169;41.804;12.596;2022-08-03T00:48:53;27.30;99.90
37281;DHT22;23169;41.804;12.596;2022-08-03T00:51:22;27.20;78.70
37281;DHT22;23169;41.804;12.596;2022-08-03T00:53:53;27.30;1.00
37281;DHT22;23169;41.804;12.596;2022-08-03T00:56:22;27.10;1.00
37281;DHT22;23169;41.804;12.596;2022-08-03T00:58:50;27.00;1.00
37281;DHT22;23169;41.804;12.596;2022-08-03T01:01:20;27.00;99.90
37281;DHT22;23169;41.804;12.596;2022-08-03T01:03:49;27.00;99.90
37281;DHT22;23169;41.804;12.596;2022-08-03T01:06:40;27.00;99.90
37281;DHT22;23169;41.804;12.596;2022-08-03T01:09:30;27.00;99.90
37281;DHT22;23169;41.804;12.596;2022-08-03T01:12:19;27.00;99.90
37281;DHT22;23169;41.804;12.596;2022-08-03T01:15:12;27.00;99.90
37281;DHT22;23169;41.804;12.596;2022-08-03T01:17:58;27.00;99.90
37281;DHT22;23169;41.804;12.596;2022-08-03T01:20:32;26.90;99.90
37281;DHT22;23169;41.804;12.596;2022-08-03T01:31:28;26.80;99.90
37281;DHT22;23169;41.804;12.596;2022-08-03T01:34:02;26.70;99.90
37281;DHT22;23169;41.804;12.596;2022-08-03T01:36:35;26.70;99.90
37281;DHT22;23169;41.804;12.596;2022-08-03T01:39:05;26.60;99.90
37281;DHT22;23169;41.804;12.596;2022-08-03T01:41:43;26.60;99.90
37281;DHT22;23169;41.804;12.596;2022-08-03T01:44:14;26.50;99.90
37281;DHT22;23169;41.804;12.596;2022-08-03T01:46:43;26.60;99.90
37281;DHT22;23169;41.804;12.596;2022-08-03T01:49:12;26.50;99.90
37281;DHT22;23169;41.804;12.596;2022-08-03T01:51:41;26.50;77.30
37281;DHT22;23169;41.804;12.596;2022-08-03T01:54:10;26.60;18.00
37281;DHT22;23169;41.804;12.596;2022-08-03T01:56:41;26.50;1.00
37281;DHT22;23169;41.804;12.596;2022-08-03T01:59:11;26.60;1.00
37281;DHT22;23169;41.804;12.596;2022-08-03T02:01:42;26.50;1.00
37281;DHT22;23169;41.804;12.596;2022-08-03T02:04:13;26.50;1.00
37281;DHT22;23169;41.804;12.596;2022-08-03T02:06:42;26.50;1.00
37281;DHT22;23169;41.804;12.596;2022-08-03T02:09:14;26.50;1.00
37281;DHT22;23169;41.804;12.596;2022-08-03T02:11:46;26.40;1.00
37281;DHT22;23169;41.804;12.596;2022-08-03T02:14:15;26.30;1.00
37281;DHT22;23169;41.804;12.596;2022-08-03T02:16:44;26.30;1.00
37281;DHT22;23169;41.804;12.596;2022-08-03T02:19:13;26.30;1.00
37281;DHT22;23169;41.804;12.596;2022-08-03T02:21:43;26.30;1.00
37281;DHT22;23169;41.804;12.596;2022-08-03T02:24:12;26.30;1.00
37281;DHT22;23169;41.804;12.596;2022-08-03T02:26:40;26.30;1.00
37281;DHT22;23169;41.804;12.596;2022-08-03T02:29:17;26.30;1.00
37281;DHT22;23169;41.804;12.596;2022-08-03T02:31:48;26.30;15.80
37281;DHT22;23169;41.804;12.596;2022-08-03T02:34:23;26.30;47.30
37281;DHT22;23169;41.804;12.596;2022-08-03T02:36:54;26.30;71.20
37281;DHT22;23169;41.804;12.596;2022-08-03T02:39:30;26.40;88.70
37281;DHT22;23169;41.804;12.596;2022-08-03T02:42:00;26.30;96.30
37281;DHT22;23169;41.804;12.596;2022-08-03T02:44:34;26.40;99.90
37281;DHT22;23169;41.804;12.596;2022-08-03T02:47:06;26.30;99.90
37281;DHT22;23169;41.804;12.596;2022-08-03T02:49:38;26.30;99.90
37281;DHT22;23169;41.804;12.596;2022-08-03T02:52:11;26.30;99.90
37281;DHT22;23169;41.804;12.596;2022-08-03T02:54:40;26.30;99.90
37281;DHT22;23169;41.804;12.596;2022-08-03T02:57:10;26.30;99.90
37281;DHT22;23169;41.804;12.596;2022-08-03T02:59:42;26.30;99.90
37281;DHT22;23169;41.804;12.596;2022-08-03T03:02:13;26.20;99.90
37281;DHT22;23169;41.804;12.596;2022-08-03T03:04:43;26.20;99.90
37281;DHT22;23169;41.804;12.596;2022-08-03T03:07:12;26.30;99.90
37281;DHT22;23169;41.804;12.596;2022-08-03T03:09:42;26.20;99.90
37281;DHT22;23169;41.804;12.596;2022-08-03T03:12:12;26.20;99.00
37281;DHT22;23169;41.804;12.596;2022-08-03T03:14:40;26.10;99.90
37281;DHT22;23169;41.804;12.596;2022-08-03T03:17:10;26.10;99.90
37281;DHT22;23169;41.804;12.596;2022-08-03T03:19:39;26.10;98.00
37281;DHT22;23169;41.804;12.596;2022-08-03T03:22:09;26.10;75.40
37281;DHT22;23169;41.804;12.596;2022-08-03T03:24:38;26.00;41.40
37281;DHT22;23169;41.804;12.596;2022-08-03T03:27:08;26.00;15.70
37281;DHT22;23169;41.804;12.596;2022-08-03T03:29:37;26.00;1.00
37281;DHT22;23169;41.804;12.596;2022-08-03T03:32:05;26.00;1.00
37281;DHT22;23169;41.804;12.596;2022-08-03T03:34:34;26.00;1.00
37281;DHT22;23169;41.804;12.596;2022-08-03T03:37:03;26.00;1.00
37281;DHT22;23169;41.804;12.596;2022-08-03T03:39:31;26.00;1.00
37281;DHT22;23169;41.804;12.596;2022-08-03T03:42:00;25.90;1.00
37281;DHT22;23169;41.804;12.596;2022-08-03T03:44:30;25.90;1.00
37281;DHT22;23169;41.804;12.596;2022-08-03T03:46:58;25.90;1.00
37281;DHT22;23169;41.804;12.596;2022-08-03T03:49:26;25.80;1.00
37281;DHT22;23169;41.804;12.596;2022-08-03T03:51:54;25.80;1.00
37281;DHT22;23169;41.804;12.596;2022-08-03T03:54:22;25.70;1.00
37281;DHT22;23169;41.804;12.596;2022-08-03T03:56:51;25.70;1.00
37281;DHT22;23169;41.804;12.596;2022-08-03T03:59:19;25.70;1.00
37281;DHT22;23169;41.804;12.596;2022-08-03T04:01:47;25.70;1.00
37281;DHT22;23169;41.804;12.596;2022-08-03T04:04:15;25.70;1.00
37281;DHT22;23169;41.804;12.596;2022-08-03T04:07:02;25.60;1.00
37281;DHT22;23169;41.804;12.596;2022-08-03T04:09:48;25.50;1.00
37281;DHT22;23169;41.804;12.596;2022-08-03T04:12:37;25.40;1.00
37281;DHT22;23169;41.804;12.596;2022-08-03T04:15:07;25.40;1.00
37281;DHT22;23169;41.804;12.596;2022-08-03T04:17:53;25.50;1.00
37281;DHT22;23169;41.804;12.596;2022-08-03T04:20:39;25.50;1.00
37281;DHT22;23169;41.804;12.596;2022-08-03T04:23:30;25.50;1.00
37281;DHT22;23169;41.804;12.596;2022-08-03T04:26:20;25.50;1.00
37281;DHT22;23169;41.804;12.596;2022-08-03T04:29:06;25.50;1.00
37281;DHT22;23169;41.804;12.596;2022-08-03T04:31:42;25.50;1.00
37281;DHT22;23169;41.804;12.596;2022-08-03T04:34:11;25.50;1.00
37281;DHT22;23169;41.804;12.596;2022-08-03T04:36:47;25.40;1.00
37281;DHT22;23169;41.804;12.596;2022-08-03T04:39:23;25.40;1.00
37281;DHT22;23169;41.804;12.596;2022-08-03T04:41:57;25.50;1.00
37281;DHT22;23169;41.804;12.596;2022-08-03T04:44:29;25.40;1.00
37281;DHT22;23169;41.804;12.596;2022-08-03T04:46:59;25.40;1.00
37281;DHT22;23169;41.804;12.596;2022-08-03T04:49:28;25.40;1.00
37281;DHT22;23169;41.804;12.596;2022-08-03T04:52:00;25.50;1.00
37281;DHT22;23169;41.804;12.596;2022-08-03T04:54:29;25.30;1.00
37281;DHT22;23169;41.804;12.596;2022-08-03T04:56:58;25.40;1.00
37281;DHT22;23169;41.804;12.596;2022-08-03T04:59:31;25.40;1.00
37281;DHT22;23169;41.804;12.596;2022-08-03T05:01:59;25.40;1.00
37281;DHT22;23169;41.804;12.596;2022-08-03T05:04:29;25.40;1.00
37281;DHT22;23169;41.804;12.596;2022-08-03T05:06:57;25.50;1.00
37281;DHT22;23169;41.804;12.596;2022-08-03T05:09:26;25.40;1.00
37281;DHT22;23169;41.804;12.596;2022-08-03T05:11:54;25.50;1.00
37281;DHT22;23169;41.804;12.596;2022-08-03T05:14:22;25.50;1.00
37281;DHT22;23169;41.804;12.596;2022-08-03T05:16:50;25.60;1.00
37281;DHT22;23169;41.804;12.596;2022-08-03T05:19:18;25.60;1.00
37281;DHT22;23169;41.804;12.596;2022-08-03T05:21:48;25.70;1.00
37281;DHT22;23169;41.804;12.596;2022-08-03T05:24:16;25.80;99.90
37281;DHT22;23169;41.804;12.596;2022-08-03T05:26:45;25.80;99.90
37281;DHT22;23169;41.804;12.596;2022-08-03T05:29:13;25.90;99.90
37281;DHT22;23169;41.804;12.596;2022-08-03T05:31:42;26.00;99.90
37281;DHT22;23169;41.804;12.596;2022-08-03T05:34:10;26.00;99.90
37281;DHT22;23169;41.804;12.596;2022-08-03T05:36:38;26.10;99.90
37281;DHT22;23169;41.804;12.596;2022-08-03T05:39:09;26.10;99.90
37281;DHT22;23169;41.804;12.596;2022-08-03T05:41:37;26.20;99.90
37281;DHT22;23169;41.804;12.596;2022-08-03T05:44:07;26.20;99.90
37281;DHT22;23169;41.804;12.596;2022-08-03T05:46:35;26.20;99.90
37281;DHT22;23169;41.804;12.596;2022-08-03T05:49:06;26.20;99.90
37281;DHT22;23169;41.804;12.596;2022-08-03T05:51:35;26.20;99.90
37281;DHT22;23169;41.804;12.596;2022-08-03T05:54:05;26.20;99.90
37281;DHT22;23169;41.804;12.596;2022-08-03T05:56:33;26.20;99.90
37281;DHT22;23169;41.804;12.596;2022-08-03T05:59:01;26.20;99.90
37281;DHT22;23169;41.804;12.596;2022-08-03T06:01:30;26.20;99.90
37281;DHT22;23169;41.804;12.596;2022-08-03T06:03:59;26.30;99.90
37281;DHT22;23169;41.804;12.596;2022-08-03T06:06:28;26.40;99.90
37281;DHT22;23169;41.804;12.596;2022-08-03T06:08:56;26.50;99.90
37281;DHT22;23169;41.804;12.596;2022-08-03T06:11:24;26.50;99.90
37281;DHT22;23169;41.804;12.596;2022-08-03T06:13:53;26.60;99.90
37281;DHT22;23169;41.804;12.596;2022-08-03T06:16:21;26.70;99.90
37281;DHT22;23169;41.804;12.596;2022-08-03T06:18:49;26.70;99.90
37281;DHT22;23169;41.804;12.596;2022-08-03T06:21:17;26.80;99.90
37281;DHT22;23169;41.804;12.596;2022-08-03T06:23:45;26.90;99.90
37281;DHT22;23169;41.804;12.596;2022-08-03T06:26:14;26.90;99.90
37281;DHT22;23169;41.804;12.596;2022-08-03T06:28:44;26.90;99.90
37281;DHT22;23169;41.804;12.596;2022-08-03T06:31:13;26.90;99.90
37281;DHT22;23169;41.804;12.596;2022-08-03T06:33:42;27.00;99.90
37281;DHT22;23169;41.804;12.596;2022-08-03T06:36:10;27.00;99.90
37281;DHT22;23169;41.804;12.596;2022-08-03T06:38:39;27.00;99.90
37281;DHT22;23169;41.804;12.596;2022-08-03T06:41:07;27.00;99.90
37281;DHT22;23169;41.804;12.596;2022-08-03T06:43:38;27.10;99.90
37281;DHT22;23169;41.804;12.596;2022-08-03T06:46:09;27.20;99.90
37281;DHT22;23169;41.804;12.596;2022-08-03T06:48:38;27.30;99.90
37281;DHT22;23169;41.804;12.596;2022-08-03T06:51:07;27.20;99.90
37281;DHT22;23169;41.804;12.596;2022-08-03T06:53:35;27.50;99.90
37281;DHT22;23169;41.804;12.596;2022-08-03T06:56:04;27.60;99.90
37281;DHT22;23169;41.804;12.596;2022-08-03T06:58:33;27.70;99.90
37281;DHT22;23169;41.804;12.596;2022-08-03T07:01:02;27.80;99.90
37281;DHT22;23169;41.804;12.596;2022-08-03T07:03:30;28.00;99.90
37281;DHT22;23169;41.804;12.596;2022-08-03T07:05:59;28.10;99.90
37281;DHT22;23169;41.804;12.596;2022-08-03T07:08:28;28.20;99.90
37281;DHT22;23169;41.804;12.596;2022-08-03T07:10:56;28.30;99.90
37281;DHT22;23169;41.804;12.596;2022-08-03T07:13:24;28.40;99.90
37281;DHT22;23169;41.804;12.596;2022-08-03T07:15:52;28.50;99.90
37281;DHT22;23169;41.804;12.596;2022-08-03T07:18:21;28.60;99.90
37281;DHT22;23169;41.804;12.596;2022-08-03T07:20:50;28.80;99.90
37281;DHT22;23169;41.804;12.596;2022-08-03T07:23:18;28.90;99.90
37281;DHT22;23169;41.804;12.596;2022-08-03T07:25:46;29.00;99.90
37281;DHT22;23169;41.804;12.596;2022-08-03T07:28:14;29.20;99.90
37281;DHT22;23169;41.804;12.596;2022-08-03T07:30:43;29.30;99.90
37281;DHT22;23169;41.804;12.596;2022-08-03T07:33:11;29.40;99.90
37281;DHT22;23169;41.804;12.596;2022-08-03T07:35:40;29.60;99.90
37281;DHT22;23169;41.804;12.596;2022-08-03T07:38:08;29.70;99.90
37281;DHT22;23169;41.804;12.596;2022-08-03T07:40:37;29.90;99.90
37281;DHT22;23169;41.804;12.596;2022-08-03T07:43:05;30.00;99.90
37281;DHT22;23169;41.804;12.596;2022-08-03T07:45:33;30.10;99.90
37281;DHT22;23169;41.804;12.596;2022-08-03T07:48:02;30.20;99.90
37281;DHT22;23169;41.804;12.596;2022-08-03T07:50:31;30.30;99.90
37281;DHT22;23169;41.804;12.596;2022-08-03T07:52:59;30.50;99.90
37281;DHT22;23169;41.804;12.596;2022-08-03T07:55:30;30.60;99.90
37281;DHT22;23169;41.804;12.596;2022-08-03T07:58:10;30.70;99.90
37281;DHT22;23169;41.804;12.596;2022-08-03T08:00:45;30.90;99.90
37281;DHT22;23169;41.804;12.596;2022-08-03T08:03:13;31.00;99.90
37281;DHT22;23169;41.804;12.596;2022-08-03T08:05:41;31.20;99.90
37281;DHT22;23169;41.804;12.596;2022-08-03T08:08:10;31.30;99.90
37281;DHT22;23169;41.804;12.596;2022-08-03T08:10:38;31.40;98.00
37281;DHT22;23169;41.804;12.596;2022-08-03T08:13:06;31.50;87.40
37281;DHT22;23169;41.804;12.596;2022-08-03T08:15:35;31.60;87.30
37281;DHT22;23169;41.804;12.596;2022-08-03T08:18:03;31.60;75.20
37281;DHT22;23169;41.804;12.596;2022-08-03T08:20:34;31.70;75.30
37281;DHT22;23169;41.804;12.596;2022-08-03T08:23:07;31.80;67.30
37281;DHT22;23169;41.804;12.596;2022-08-03T08:25:35;31.90;65.50
37281;DHT22;23169;41.804;12.596;2022-08-03T08:28:03;32.10;58.40
37281;DHT22;23169;41.804;12.596;2022-08-03T08:30:32;32.00;47.30
37281;DHT22;23169;41.804;12.596;2022-08-03T08:33:01;32.20;46.60
37281;DHT22;23169;41.804;12.596;2022-08-03T08:35:30;32.30;43.80
37281;DHT22;23169;41.804;12.596;2022-08-03T08:37:59;32.50;40.60
37281;DHT22;23169;41.804;12.596;2022-08-03T08:40:28;32.70;38.60
37281;DHT22;23169;41.804;12.596;2022-08-03T08:42:56;32.80;28.20
37281;DHT22;23169;41.804;12.596;2022-08-03T08:45:25;32.80;26.00
37281;DHT22;23169;41.804;12.596;2022-08-03T08:47:55;32.90;19.70
37281;DHT22;23169;41.804;12.596;2022-08-03T08:50:24;32.70;11.60
37281;DHT22;23169;41.804;12.596;2022-08-03T08:52:54;32.80;10.40
37281;DHT22;23169;41.804;12.596;2022-08-03T08:55:24;33.00;9.80
37281;DHT22;23169;41.804;12.596;2022-08-03T08:57:57;33.30;6.20
37281;DHT22;23169;41.804;12.596;2022-08-03T09:00:31;33.00;2.10
37281;DHT22;23169;41.804;12.596;2022-08-03T09:03:00;33.00;2.00
37281;DHT22;23169;41.804;12.596;2022-08-03T09:05:29;33.10;2.30
37281;DHT22;23169;41.804;12.596;2022-08-03T09:08:00;33.30;1.00
37281;DHT22;23169;41.804;12.596;2022-08-03T09:10:29;33.30;1.00
37281;DHT22;23169;41.804;12.596;2022-08-03T09:12:58;33.40;1.00
37281;DHT22;23169;41.804;12.596;2022-08-03T09:15:31;33.60;4.10
37281;DHT22;23169;41.804;12.596;2022-08-03T09:18:01;33.70;1.00
37281;DHT22;23169;41.804;12.596;2022-08-03T09:20:33;34.00;1.00
37281;DHT22;23169;41.804;12.596;2022-08-03T09:23:05;34.10;1.00
37281;DHT22;23169;41.804;12.596;2022-08-03T09:25:40;34.30;1.00
37281;DHT22;23169;41.804;12.596;2022-08-03T09:28:14;34.20;1.00
37281;DHT22;23169;41.804;12.596;2022-08-03T09:30:56;34.10;1.00
37281;DHT22;23169;41.804;12.596;2022-08-03T09:33:25;34.40;1.00
37281;DHT22;23169;41.804;12.596;2022-08-03T09:35:53;34.00;1.00
37281;DHT22;23169;41.804;12.596;2022-08-03T09:38:25;33.90;1.00
37281;DHT22;23169;41.804;12.596;2022-08-03T09:40:55;34.00;1.00
37281;DHT22;23169;41.804;12.596;2022-08-03T09:43:23;34.20;1.00
37281;DHT22;23169;41.804;12.596;2022-08-03T09:46:03;34.20;1.00
37281;DHT22;23169;41.804;12.596;2022-08-03T09:48:33;34.40;1.00
37281;DHT22;23169;41.804;12.596;2022-08-03T09:51:03;34.40;1.00
37281;DHT22;23169;41.804;12.596;2022-08-03T09:53:46;34.60;1.00
37281;DHT22;23169;41.804;12.596;2022-08-03T09:56:14;34.70;1.00
37281;DHT22;23169;41.804;12.596;2022-08-03T09:58:45;34.80;1.00
37281;DHT22;23169;41.804;12.596;2022-08-03T10:01:17;35.20;1.00
37281;DHT22;23169;41.804;12.596;2022-08-03T10:03:57;35.60;1.00
37281;DHT22;23169;41.804;12.596;2022-08-03T10:06:27;35.30;1.00
37281;DHT22;23169;41.804;12.596;2022-08-03T10:09:08;35.40;1.00
37281;DHT22;23169;41.804;12.596;2022-08-03T10:11:38;35.20;1.00
37281;DHT22;23169;41.804;12.596;2022-08-03T10:14:09;34.50;1.00
37281;DHT22;23169;41.804;12.596;2022-08-03T10:16:47;34.40;1.00
37281;DHT22;23169;41.804;12.596;2022-08-03T10:19:15;34.10;1.00
37281;DHT22;23169;41.804;12.596;2022-08-03T10:21:49;34.10;1.00
37281;DHT22;23169;41.804;12.596;2022-08-03T10:24:25;34.40;1.00
37281;DHT22;23169;41.804;12.596;2022-08-03T10:27:04;34.50;1.00
37281;DHT22;23169;41.804;12.596;2022-08-03T10:29:37;34.30;1.00
37281;DHT22;23169;41.804;12.596;2022-08-03T10:32:14;33.90;1.00
37281;DHT22;23169;41.804;12.596;2022-08-03T10:34:48;34.60;1.00
37281;DHT22;23169;41.804;12.596;2022-08-03T10:37:18;34.80;1.00
37281;DHT22;23169;41.804;12.596;2022-08-03T10:39:48;34.90;1.00
37281;DHT22;23169;41.804;12.596;2022-08-03T10:42:25;34.70;1.00
37281;DHT22;23169;41.804;12.596;2022-08-03T10:45:12;34.60;1.00
37281;DHT22;23169;41.804;12.596;2022-08-03T10:47:41;34.40;1.00
37281;DHT22;23169;41.804;12.596;2022-08-03T10:50:09;34.30;1.00
37281;DHT22;23169;41.804;12.596;2022-08-03T10:52:58;34.30;1.00
37281;DHT22;23169;41.804;12.596;2022-08-03T11:01:05;35.10;1.00
37281;DHT22;23169;41.804;12.596;2022-08-03T11:06:22;34.80;1.00
37281;DHT22;23169;41.804;12.596;2022-08-03T11:09:15;34.80;1.00
37281;DHT22;23169;41.804;12.596;2022-08-03T11:11:46;35.10;1.00
37281;DHT22;23169;41.804;12.596;2022-08-03T11:14:19;35.60;1.00
37281;DHT22;23169;41.804;12.596;2022-08-03T11:17:06;35.00;1.00
37281;DHT22;23169;41.804;12.596;2022-08-03T11:19:49;34.90;1.00
37281;DHT22;23169;41.804;12.596;2022-08-03T11:22:19;35.00;1.00
37281;DHT22;23169;41.804;12.596;2022-08-03T11:27:34;35.20;1.00
37281;DHT22;23169;41.804;12.596;2022-08-03T11:48:35;35.50;1.00
37281;DHT22;23169;41.804;12.596;2022-08-03T11:51:06;35.70;1.00
37281;DHT22;23169;41.804;12.596;2022-08-03T11:53:35;36.60;1.00
37281;DHT22;23169;41.804;12.596;2022-08-03T11:56:03;36.10;1.00
37281;DHT22;23169;41.804;12.596;2022-08-03T11:58:31;35.90;1.00
37281;DHT22;23169;41.804;12.596;2022-08-03T12:01:06;35.90;1.00
37281;DHT22;23169;41.804;12.596;2022-08-03T12:03:35;36.30;1.00
37281;DHT22;23169;41.804;12.596;2022-08-03T12:06:08;36.50;1.00
37281;DHT22;23169;41.804;12.596;2022-08-03T12:08:39;36.50;1.00
37281;DHT22;23169;41.804;12.596;2022-08-03T12:11:11;36.70;1.00
37281;DHT22;23169;41.804;12.596;2022-08-03T12:16:23;37.20;1.00
37281;DHT22;23169;41.804;12.596;2022-08-03T12:19:02;37.40;1.00
37281;DHT22;23169;41.804;12.596;2022-08-03T12:21:31;38.00;1.00
37281;DHT22;23169;41.804;12.596;2022-08-03T12:24:03;38.10;1.00
37281;DHT22;23169;41.804;12.596;2022-08-03T12:26:47;38.10;1.00
37281;DHT22;23169;41.804;12.596;2022-08-03T12:29:25;37.00;1.00
37281;DHT22;23169;41.804;12.596;2022-08-03T12:32:14;37.10;1.00
37281;DHT22;23169;41.804;12.596;2022-08-03T12:34:47;37.60;1.00
37281;DHT22;23169;41.804;12.596;2022-08-03T12:37:19;37.50;1.00
37281;DHT22;23169;41.804;12.596;2022-08-03T12:39:59;37.00;1.00
37281;DHT22;23169;41.804;12.596;2022-08-03T12:42:41;37.50;1.00
37281;DHT22;23169;41.804;12.596;2022-08-03T12:45:25;37.30;1.00
37281;DHT22;23169;41.804;12.596;2022-08-03T12:47:55;38.00;1.00
37281;DHT22;23169;41.804;12.596;2022-08-03T12:50:31;38.40;1.00
37281;DHT22;23169;41.804;12.596;2022-08-03T12:53:01;38.30;1.00
37281;DHT22;23169;41.804;12.596;2022-08-03T12:55:31;38.60;1.00
37281;DHT22;23169;41.804;12.596;2022-08-03T12:58:05;38.90;1.00
37281;DHT22;23169;41.804;12.596;2022-08-03T13:00:36;39.00;1.00
37281;DHT22;23169;41.804;12.596;2022-08-03T13:03:06;38.70;1.00
37281;DHT22;23169;41.804;12.596;2022-08-03T13:05:44;38.50;1.00
37281;DHT22;23169;41.804;12.596;2022-08-03T13:08:19;39.00;1.00
37281;DHT22;23169;41.804;12.596;2022-08-03T13:10:49;39.30;1.00
37281;DHT22;23169;41.804;12.596;2022-08-03T13:13:17;38.50;1.00
37281;DHT22;23169;41.804;12.596;2022-08-03T13:15:47;37.60;1.00
37281;DHT22;23169;41.804;12.596;2022-08-03T13:18:15;38.10;1.00
37281;DHT22;23169;41.804;12.596;2022-08-03T13:20:43;39.00;1.00
37281;DHT22;23169;41.804;12.596;2022-08-03T13:23:12;39.40;1.00
37281;DHT22;23169;41.804;12.596;2022-08-03T13:25:40;39.10;1.00
37281;DHT22;23169;41.804;12.596;2022-08-03T13:28:09;39.30;1.00
37281;DHT22;23169;41.804;12.596;2022-08-03T13:30:37;38.90;1.00
37281;DHT22;23169;41.804;12.596;2022-08-03T13:33:05;39.30;1.00
37281;DHT22;23169;41.804;12.596;2022-08-03T13:35:43;39.20;1.00
37281;DHT22;23169;41.804;12.596;2022-08-03T13:38:11;39.20;1.00
37281;DHT22;23169;41.804;12.596;2022-08-03T13:40:40;39.30;1.00
37281;DHT22;23169;41.804;12.596;2022-08-03T13:43:08;39.40;1.00
37281;DHT22;23169;41.804;12.596;2022-08-03T13:45:37;39.50;1.00
37281;DHT22;23169;41.804;12.596;2022-08-03T13:48:05;39.50;1.00
37281;DHT22;23169;41.804;12.596;2022-08-03T13:50:34;39.40;1.00
37281;DHT22;23169;41.804;12.596;2022-08-03T13:53:02;40.00;1.00
37281;DHT22;23169;41.804;12.596;2022-08-03T13:55:31;39.90;1.00
37281;DHT22;23169;41.804;12.596;2022-08-03T13:58:00;39.80;1.00
37281;DHT22;23169;41.804;12.596;2022-08-03T14:00:30;39.50;1.00
37281;DHT22;23169;41.804;12.596;2022-08-03T14:03:00;39.80;1.00
37281;DHT22;23169;41.804;12.596;2022-08-03T14:05:29;40.10;1.00
37281;DHT22;23169;41.804;12.596;2022-08-03T14:07:59;40.40;1.00
37281;DHT22;23169;41.804;12.596;2022-08-03T14:10:36;40.00;1.00
37281;DHT22;23169;41.804;12.596;2022-08-03T14:13:05;39.80;1.00
37281;DHT22;23169;41.804;12.596;2022-08-03T14:15:33;40.00;1.00
37281;DHT22;23169;41.804;12.596;2022-08-03T14:18:02;40.00;1.00
37281;DHT22;23169;41.804;12.596;2022-08-03T14:20:31;40.20;1.00
37281;DHT22;23169;41.804;12.596;2022-08-03T14:22:59;39.60;1.00
37281;DHT22;23169;41.804;12.596;2022-08-03T14:25:30;39.40;1.00
37281;DHT22;23169;41.804;12.596;2022-08-03T14:27:59;39.90;1.00
37281;DHT22;23169;41.804;12.596;2022-08-03T14:30:28;39.50;1.00
37281;DHT22;23169;41.804;12.596;2022-08-03T14:32:58;39.70;1.00
37281;DHT22;23169;41.804;12.596;2022-08-03T14:35:26;39.10;1.00
37281;DHT22;23169;41.804;12.596;2022-08-03T14:37:54;39.10;1.00
37281;DHT22;23169;41.804;12.596;2022-08-03T14:40:22;39.10;1.00
37281;DHT22;23169;41.804;12.596;2022-08-03T14:42:51;38.90;1.00
37281;DHT22;23169;41.804;12.596;2022-08-03T14:45:19;38.40;1.00
37281;DHT22;23169;41.804;12.596;2022-08-03T14:48:03;38.20;1.00
37281;DHT22;23169;41.804;12.596;2022-08-03T14:50:36;38.40;1.00
37281;DHT22;23169;41.804;12.596;2022-08-03T14:53:08;38.50;1.00
37281;DHT22;23169;41.804;12.596;2022-08-03T14:55:36;39.10;1.00
37281;DHT22;23169;41.804;12.596;2022-08-03T14:58:05;39.40;1.00
37281;DHT22;23169;41.804;12.596;2022-08-03T15:00:35;39.50;1.00
37281;DHT22;23169;41.804;12.596;2022-08-03T15:03:03;39.30;1.00
37281;DHT22;23169;41.804;12.596;2022-08-03T15:05:31;39.10;1.00
37281;DHT22;23169;41.804;12.596;2022-08-03T15:08:00;38.90;1.00
37281;DHT22;23169;41.804;12.596;2022-08-03T15:10:29;38.50;1.00
37281;DHT22;23169;41.804;12.596;2022-08-03T15:13:00;38.90;1.00
37281;DHT22;23169;41.804;12.596;2022-08-03T15:15:29;38.80;1.00
37281;DHT22;23169;41.804;12.596;2022-08-03T15:17:58;39.20;1.00
37281;DHT22;23169;41.804;12.596;2022-08-03T15:20:26;39.50;1.00
37281;DHT22;23169;41.804;12.596;2022-08-03T15:22:54;39.60;1.00
37281;DHT22;23169;41.804;12.596;2022-08-03T15:25:23;39.20;1.00
37281;DHT22;23169;41.804;12.596;2022-08-03T15:27:52;38.50;1.00
37281;DHT22;23169;41.804;12.596;2022-08-03T15:30:20;38.30;1.00
37281;DHT22;23169;41.804;12.596;2022-08-03T15:32:51;38.10;1.00
37281;DHT22;23169;41.804;12.596;2022-08-03T15:35:19;38.00;1.00
37281;DHT22;23169;41.804;12.596;2022-08-03T15:37:48;37.90;1.00
37281;DHT22;23169;41.804;12.596;2022-08-03T15:40:16;37.80;1.00
37281;DHT22;23169;41.804;12.596;2022-08-03T15:42:44;37.90;1.00
37281;DHT22;23169;41.804;12.596;2022-08-03T15:45:12;38.20;1.00
37281;DHT22;23169;41.804;12.596;2022-08-03T15:47:41;38.20;1.00
37281;DHT22;23169;41.804;12.596;2022-08-03T15:50:09;38.00;1.00
37281;DHT22;23169;41.804;12.596;2022-08-03T15:52:39;37.90;1.00
37281;DHT22;23169;41.804;12.596;2022-08-03T15:55:08;37.70;1.00
37281;DHT22;23169;41.804;12.596;2022-08-03T15:57:36;37.60;1.00
37281;DHT22;23169;41.804;12.596;2022-08-03T16:00:06;37.60;1.00
37281;DHT22;23169;41.804;12.596;2022-08-03T16:02:38;37.20;1.00
37281;DHT22;23169;41.804;12.596;2022-08-03T16:05:06;36.80;1.00
37281;DHT22;23169;41.804;12.596;2022-08-03T16:07:35;36.30;1.00
37281;DHT22;23169;41.804;12.596;2022-08-03T16:10:16;35.70;1.00
37281;DHT22;23169;41.804;12.596;2022-08-03T16:12:45;35.00;1.00
37281;DHT22;23169;41.804;12.596;2022-08-03T16:15:14;34.50;1.00
37281;DHT22;23169;41.804;12.596;2022-08-03T16:17:43;34.30;1.00
37281;DHT22;23169;41.804;12.596;2022-08-03T16:20:13;34.00;1.00
37281;DHT22;23169;41.804;12.596;2022-08-03T16:22:46;33.80;1.00
37281;DHT22;23169;41.804;12.596;2022-08-03T16:25:16;33.70;1.00
37281;DHT22;23169;41.804;12.596;2022-08-03T16:27:44;33.60;1.00
37281;DHT22;23169;41.804;12.596;2022-08-03T16:30:14;33.60;1.00